Time;durP1;ratioP1;P1;durP2;ratioP2;P2;SDS_P1;SDS_P2;PMS_P1;PMS_P2;Temp;Humidity;BMP_temperature;BMP_pressure;BME280_temperature;BME280_humidity;BME280_pressure;Samples;Min_cycle;Max_cycle;Signal;HPM_P1;HPM_P2
2021/01/22 00:01:18;;;;;;;47.45;21.50;;;;;;;;;;5032331;28;20049;-70
2021/01/22 00:03:43;;;;;;;62.15;25.80;;;;;;;;;;5032265;28;20681;-70
2021/01/22 00:06:11;;;;;;;62.70;28.65;;;;;;;;;;5032237;28;20017;-70
2021/01/22 00:08:36;;;;;;;77.80;37.90;;;;;;;;;;5032448;28;20059;-70
2021/01/22 00:11:01;;;;;;;101.45;48.42;;;;;;;;;;5030847;28;20067;-69
2021/01/22 00:13:27;;;;;;;103.43;47.38;;;;;;;;;;5030632;28;20477;-70
2021/01/22 00:15:52;;;;;;;87.15;43.50;;;;;;;;;;5031360;28;20030;-70
2021/01/22 00:18:17;;;;;;;85.30;41.92;;;;;;;;;;5019915;28;20044;-70
2021/01/22 00:20:42;;;;;;;71.72;38.03;;;;;;;;;;5030489;28;20021;-70
2021/01/22 00:23:08;;;;;;;58.28;25.35;;;;;;;;;;5029145;28;20112;-70
2021/01/22 00:25:33;;;;;;;60.40;26.85;;;;;;;;;;5029876;28;20036;-70
2021/01/22 00:27:58;;;;;;;60.53;26.02;;;;;;;;;;5029302;28;20049;-70
2021/01/22 00:30:23;;;;;;;69.30;28.23;;;;;;;;;;5029896;28;20042;-70
2021/01/22 00:32:49;;;;;;;56.72;24.92;;;;;;;;;;5030148;28;20033;-70
2021/01/22 00:35:14;;;;;;;55.72;24.75;;;;;;;;;;5029955;28;20013;-70
2021/01/22 00:37:39;;;;;;;58.25;28.80;;;;;;;;;;5029723;28;20035;-70
2021/01/22 00:40:05;;;;;;;57.08;27.95;;;;;;;;;;5030026;28;20045;-70
2021/01/22 00:42:31;;;;;;;62.85;28.50;;;;;;;;;;5030124;28;20056;-70
2021/01/22 00:44:56;;;;;;;53.65;24.25;;;;;;;;;;5030919;28;20100;-70
2021/01/22 00:47:22;;;;;;;47.58;23.52;;;;;;;;;;5029686;28;20276;-69
2021/01/22 00:49:47;;;;;;;58.03;25.35;;;;;;;;;;5029838;28;20056;-70
2021/01/22 00:52:12;;;;;;;61.65;28.20;;;;;;;;;;5029936;28;20034;-69
2021/01/22 00:54:37;;;;;;;53.05;25.13;;;;;;;;;;5029308;28;20026;-69
2021/01/22 00:57:03;;;;;;;45.90;23.52;;;;;;;;;;5030959;28;20441;-70
2021/01/22 00:59:28;;;;;;;41.20;19.67;;;;;;;;;;5030231;28;20046;-70
2021/01/22 01:01:53;;;;;;;41.42;20.67;;;;;;;;;;5030280;28;20178;-70
2021/01/22 01:04:19;;;;;;;40.72;22.55;;;;;;;;;;5029904;28;20017;-70
2021/01/22 01:06:44;;;;;;;41.28;21.75;;;;;;;;;;5030160;28;20065;-70
2021/01/22 01:09:09;;;;;;;46.83;21.33;;;;;;;;;;5030150;28;20112;-70
2021/01/22 01:11:34;;;;;;;;;;;;;;;;;;5007498;28;698099;-70
2021/01/22 01:13:59;;;;;;;59.13;26.98;;;;;;;;;;5030575;28;19913;-69
2021/01/22 01:16:25;;;;;;;75.78;31.20;;;;;;;;;;5031353;28;20037;-70
2021/01/22 01:18:50;;;;;;;59.55;27.60;;;;;;;;;;5028024;28;20035;-70
2021/01/22 01:21:16;;;;;;;72.75;33.50;;;;;;;;;;5030727;28;20083;-70
2021/01/22 01:23:41;;;;;;;76.97;33.28;;;;;;;;;;5030783;28;20120;-70
2021/01/22 01:26:06;;;;;;;81.10;33.22;;;;;;;;;;5031411;28;20021;-70
2021/01/22 01:28:32;;;;;;;90.20;31.05;;;;;;;;;;5031250;28;20059;-70
2021/01/22 01:30:57;;;;;;;75.00;32.22;;;;;;;;;;5030350;28;20489;-70
2021/01/22 01:33:22;;;;;;;66.38;29.70;;;;;;;;;;5030814;28;20025;-69
2021/01/22 01:35:51;;;;;;;85.30;37.92;;;;;;;;;;5030492;28;20455;-70
2021/01/22 01:38:16;;;;;;;86.20;41.38;;;;;;;;;;5030960;28;20029;-69
2021/01/22 01:40:42;;;;;;;76.15;39.20;;;;;;;;;;5030525;28;20033;-70
2021/01/22 01:43:07;;;;;;;84.47;43.90;;;;;;;;;;5028976;28;20033;-70
2021/01/22 01:45:36;;;;;;;94.22;52.20;;;;;;;;;;5028028;28;20093;-70
2021/01/22 01:48:01;;;;;;;81.75;43.20;;;;;;;;;;5029235;28;20032;-70
2021/01/22 01:50:27;;;;;;;74.60;40.63;;;;;;;;;;5029956;28;20049;-70
2021/01/22 01:52:52;;;;;;;75.18;35.97;;;;;;;;;;5029732;28;20033;-70
2021/01/22 01:55:18;;;;;;;60.17;32.47;;;;;;;;;;5030890;28;20120;-70
2021/01/22 01:57:43;;;;;;;60.63;29.92;;;;;;;;;;5029923;28;20033;-70
2021/01/22 02:00:09;;;;;;;66.85;36.50;;;;;;;;;;5030160;28;20037;-70
2021/01/22 02:02:34;;;;;;;69.55;35.15;;;;;;;;;;5030362;28;20021;-70
2021/01/22 02:04:59;;;;;;;54.83;29.48;;;;;;;;;;5029965;28;20032;-70
2021/01/22 02:07:25;;;;;;;55.92;25.98;;;;;;;;;;5029958;28;20052;-70
2021/01/22 02:09:50;;;;;;;50.17;26.05;;;;;;;;;;5030361;28;20053;-70
2021/01/22 02:12:17;;;;;;;57.30;26.08;;;;;;;;;;5029973;28;20030;-70
2021/01/22 02:14:43;;;;;;;60.47;27.50;;;;;;;;;;5029964;28;20037;-70
2021/01/22 02:17:09;;;;;;;45.42;24.27;;;;;;;;;;5027525;28;20497;-69
2021/01/22 02:19:52;;;;;;;34.78;19.27;;;;;;;;;;5029807;28;20041;-70
2021/01/22 02:22:18;;;;;;;40.97;20.42;;;;;;;;;;5030036;28;20033;-70
2021/01/22 02:24:43;;;;;;;41.08;20.35;;;;;;;;;;5029632;28;20035;-70
2021/01/22 02:27:09;;;;;;;37.95;19.02;;;;;;;;;;5030055;28;20120;-70
2021/01/22 02:29:36;;;;;;;36.28;17.77;;;;;;;;;;5029384;28;20355;-70
2021/01/22 02:32:03;;;;;;;35.67;17.27;;;;;;;;;;5030362;28;20036;-69
2021/01/22 02:34:30;;;;;;;33.13;15.23;;;;;;;;;;5029798;28;20033;-70
2021/01/22 02:36:59;;;;;;;28.20;15.32;;;;;;;;;;5030202;28;20032;-70
2021/01/22 02:39:26;;;;;;;30.00;13.95;;;;;;;;;;5030264;28;20088;-70
2021/01/22 02:41:53;;;;;;;31.15;13.43;;;;;;;;;;5029379;28;20033;-70
2021/01/22 02:44:19;;;;;;;27.42;13.45;;;;;;;;;;5029254;28;20466;-70
2021/01/22 02:46:44;;;;;;;23.15;11.98;;;;;;;;;;5029710;28;20039;-70
2021/01/22 02:49:10;;;;;;;27.75;11.18;;;;;;;;;;5029532;28;20048;-69
2021/01/22 02:51:35;;;;;;;23.17;10.45;;;;;;;;;;5029461;28;20026;-69
2021/01/22 02:54:00;;;;;;;25.48;10.43;;;;;;;;;;5029721;28;20040;-70
2021/01/22 02:56:38;;;;;;;22.88;10.00;;;;;;;;;;5029519;28;20038;-70
2021/01/22 02:59:19;;;;;;;17.33;10.13;;;;;;;;;;5030257;28;20034;-70
2021/01/22 03:02:03;;;;;;;16.52;8.38;;;;;;;;;;5029251;28;20032;-70
2021/01/22 03:04:29;;;;;;;20.23;8.52;;;;;;;;;;5029547;28;20033;-70
2021/01/22 03:06:56;;;;;;;20.90;7.47;;;;;;;;;;5029471;28;20048;-69
2021/01/22 03:09:22;;;;;;;20.58;9.40;;;;;;;;;;5029000;28;20033;-70
2021/01/22 03:11:49;;;;;;;22.88;9.65;;;;;;;;;;5029259;28;20033;-70
2021/01/22 03:14:16;;;;;;;19.35;9.43;;;;;;;;;;5028988;28;20390;-69
2021/01/22 03:16:42;;;;;;;29.52;14.23;;;;;;;;;;5029490;28;20025;-69
2021/01/22 03:19:07;;;;;;;39.08;17.67;;;;;;;;;;5027192;28;20421;-70
2021/01/22 03:21:32;;;;;;;41.38;17.48;;;;;;;;;;5029078;28;20398;-70
2021/01/22 03:23:58;;;;;;;44.33;20.67;;;;;;;;;;5028946;28;20010;-69
2021/01/22 03:26:23;;;;;;;30.50;13.93;;;;;;;;;;5029300;28;20064;-69
2021/01/22 03:28:48;;;;;;;28.35;10.85;;;;;;;;;;5028834;28;20033;-70
2021/01/22 03:31:14;;;;;;;21.15;11.35;;;;;;;;;;5028938;28;20029;-70
2021/01/22 03:33:39;;;;;;;19.00;9.48;;;;;;;;;;5029889;28;20381;-70
2021/01/22 03:36:05;;;;;;;22.77;8.63;;;;;;;;;;5028364;28;20378;-70
2021/01/22 03:38:31;;;;;;;16.42;7.88;;;;;;;;;;5029318;28;20025;-70
2021/01/22 03:40:56;;;;;;;17.65;7.28;;;;;;;;;;5028976;28;20101;-70
2021/01/22 03:43:22;;;;;;;14.00;6.85;;;;;;;;;;5028862;28;20045;-70
2021/01/22 03:45:47;;;;;;;15.40;7.03;;;;;;;;;;5028523;28;20749;-70
2021/01/22 03:48:12;;;;;;;17.63;6.45;;;;;;;;;;5029408;28;20036;-70
2021/01/22 03:50:38;;;;;;;15.93;6.47;;;;;;;;;;5029085;28;20704;-70
2021/01/22 03:53:03;;;;;;;15.25;6.45;;;;;;;;;;5029018;28;20133;-69
2021/01/22 03:55:28;;;;;;;14.63;5.97;;;;;;;;;;5028583;28;20037;-70
2021/01/22 03:57:53;;;;;;;15.85;7.63;;;;;;;;;;5029013;28;20048;-70
2021/01/22 04:00:19;;;;;;;12.52;6.35;;;;;;;;;;5029232;28;20104;-69
2021/01/22 04:02:44;;;;;;;11.63;6.93;;;;;;;;;;5029453;28;20033;-70
2021/01/22 04:05:10;;;;;;;19.63;7.82;;;;;;;;;;5032295;28;20033;-70
2021/01/22 04:07:36;;;;;;;16.42;7.78;;;;;;;;;;5032206;28;20495;-70
2021/01/22 04:10:01;;;;;;;11.48;6.55;;;;;;;;;;5031981;28;20135;-70
2021/01/22 04:12:26;;;;;;;17.95;6.85;;;;;;;;;;5032396;28;20029;-70
2021/01/22 04:14:51;;;;;;;15.70;6.40;;;;;;;;;;5032735;28;20074;-70
2021/01/22 04:17:17;;;;;;;11.50;5.80;;;;;;;;;;5029661;28;20041;-70
2021/01/22 04:19:43;;;;;;;10.48;4.65;;;;;;;;;;5032099;28;20064;-69
2021/01/22 04:22:09;;;;;;;15.27;5.55;;;;;;;;;;5032055;28;20359;-70
2021/01/22 04:24:35;;;;;;;18.25;5.32;;;;;;;;;;5030773;28;20033;-70
2021/01/22 04:27:00;;;;;;;15.52;4.38;;;;;;;;;;5030816;28;20116;-69
2021/01/22 04:29:25;;;;;;;10.90;4.25;;;;;;;;;;5032566;28;20056;-70
2021/01/22 04:31:50;;;;;;;12.15;5.05;;;;;;;;;;5032297;28;20034;-70
2021/01/22 04:34:16;;;;;;;9.82;4.72;;;;;;;;;;5032099;28;20076;-70
2021/01/22 04:36:41;;;;;;;10.23;4.63;;;;;;;;;;5031769;28;20022;-70
2021/01/22 04:39:06;;;;;;;11.38;3.83;;;;;;;;;;5032029;28;20120;-69
2021/01/22 04:41:32;;;;;;;12.77;4.32;;;;;;;;;;5030497;28;20080;-69
2021/01/22 04:43:58;;;;;;;15.10;5.30;;;;;;;;;;5032328;28;20014;-70
2021/01/22 04:46:24;;;;;;;8.85;4.40;;;;;;;;;;5031157;28;20091;-70
2021/01/22 04:48:50;;;;;;;16.08;4.38;;;;;;;;;;5031746;28;20033;-70
2021/01/22 04:51:16;;;;;;;10.38;3.90;;;;;;;;;;5031884;28;20033;-70
2021/01/22 04:53:42;;;;;;;13.30;4.30;;;;;;;;;;5031356;28;20108;-70
2021/01/22 04:56:08;;;;;;;12.13;4.18;;;;;;;;;;5031434;28;20041;-69
2021/01/22 04:58:36;;;;;;;10.65;4.40;;;;;;;;;;5031615;28;20025;-70
2021/01/22 05:01:02;;;;;;;10.18;4.18;;;;;;;;;;5031761;28;20112;-70
2021/01/22 05:03:28;;;;;;;11.00;3.95;;;;;;;;;;5031680;28;20033;-70
2021/01/22 05:05:56;;;;;;;11.20;4.22;;;;;;;;;;5031057;28;20355;-70
2021/01/22 05:08:21;;;;;;;15.52;4.28;;;;;;;;;;5031440;28;20033;-70
2021/01/22 05:10:47;;;;;;;8.52;4.15;;;;;;;;;;5031276;28;20393;-69
2021/01/22 05:13:12;;;;;;;12.90;4.30;;;;;;;;;;5031227;28;20014;-70
2021/01/22 05:15:38;;;;;;;16.15;4.03;;;;;;;;;;5029976;28;20107;-69
2021/01/22 05:18:04;;;;;;;12.45;4.60;;;;;;;;;;5028901;28;20030;-70
2021/01/22 05:20:37;;;;;;;13.15;4.00;;;;;;;;;;5031196;28;20029;-70
2021/01/22 05:23:04;;;;;;;8.32;3.75;;;;;;;;;;5031205;28;20038;-70
2021/01/22 05:25:29;;;;;;;15.73;3.88;;;;;;;;;;5030818;28;20041;-70
2021/01/22 05:27:55;;;;;;;7.78;3.80;;;;;;;;;;5030548;28;20017;-70
2021/01/22 05:30:21;;;;;;;12.65;4.18;;;;;;;;;;5030998;28;20049;-70
2021/01/22 05:32:47;;;;;;;13.85;5.10;;;;;;;;;;5030696;28;20044;-70
2021/01/22 05:35:12;;;;;;;21.17;8.88;;;;;;;;;;5030846;28;20026;-69
2021/01/22 05:37:50;;;;;;;18.25;7.20;;;;;;;;;;5031294;28;20033;-70
2021/01/22 05:40:16;;;;;;;26.48;9.13;;;;;;;;;;5030708;28;20030;-69
2021/01/22 05:42:54;;;;;;;20.83;9.07;;;;;;;;;;5031370;28;20040;-70
2021/01/22 05:45:37;;;;;;;22.00;9.95;;;;;;;;;;5030642;28;20033;-70
2021/01/22 05:48:02;;;;;;;26.55;9.82;;;;;;;;;;5030259;28;20033;-70
2021/01/22 05:50:42;;;;;;;21.60;9.48;;;;;;;;;;5030813;28;20033;-70
2021/01/22 05:53:11;;;;;;;21.48;6.88;;;;;;;;;;5030592;28;20043;-70
2021/01/22 05:55:37;;;;;;;13.80;6.07;;;;;;;;;;5030355;28;20048;-70
2021/01/22 05:58:02;;;;;;;10.73;4.55;;;;;;;;;;5030347;28;20025;-70
2021/01/22 06:00:27;;;;;;;13.10;5.22;;;;;;;;;;5030166;28;20045;-69
2021/01/22 06:02:53;;;;;;;15.02;4.93;;;;;;;;;;5030141;28;20033;-70
2021/01/22 06:05:20;;;;;;;7.85;4.85;;;;;;;;;;5030629;28;20025;-70
2021/01/22 06:07:46;;;;;;;10.35;4.60;;;;;;;;;;5030552;28;20385;-70
2021/01/22 06:10:19;;;;;;;9.00;4.38;;;;;;;;;;5029783;28;20053;-70
2021/01/22 06:13:03;;;;;;;9.68;3.47;;;;;;;;;;5029871;28;20583;-70
2021/01/22 06:15:28;;;;;;;13.40;4.80;;;;;;;;;;5030231;28;20021;-70
2021/01/22 06:17:55;;;;;;;10.85;3.95;;;;;;;;;;5027228;28;20033;-70
2021/01/22 06:20:23;;;;;;;11.82;5.25;;;;;;;;;;5030607;28;20025;-70
2021/01/22 06:23:05;;;;;;;9.07;2.93;;;;;;;;;;5030745;28;20074;-70
2021/01/22 06:25:31;;;;;;;8.18;3.80;;;;;;;;;;5029694;28;20033;-69
2021/01/22 06:27:57;;;;;;;10.15;4.25;;;;;;;;;;5029518;28;20458;-70
2021/01/22 06:30:24;;;;;;;10.32;4.05;;;;;;;;;;5030180;28;20041;-69
2021/01/22 06:32:49;;;;;;;10.23;3.63;;;;;;;;;;5028575;28;20057;-70
2021/01/22 06:35:15;;;;;;;11.45;4.05;;;;;;;;;;5029506;28;20049;-70
2021/01/22 06:37:41;;;;;;;13.50;3.75;;;;;;;;;;5029518;28;20037;-70
2021/01/22 06:40:07;;;;;;;10.60;4.07;;;;;;;;;;5029440;28;20534;-69
2021/01/22 06:42:37;;;;;;;9.82;3.78;;;;;;;;;;5029424;28;20105;-69
2021/01/22 06:45:03;;;;;;;16.10;3.60;;;;;;;;;;5029578;28;20065;-69
2021/01/22 06:47:28;;;;;;;9.23;3.40;;;;;;;;;;5030121;28;20429;-70
2021/01/22 06:49:54;;;;;;;12.57;4.13;;;;;;;;;;5029297;28;20017;-70
2021/01/22 06:52:19;;;;;;;10.75;3.55;;;;;;;;;;5029534;28;20998;-70
2021/01/22 06:54:57;;;;;;;12.75;3.97;;;;;;;;;;5029375;28;20045;-70
2021/01/22 06:57:23;;;;;;;10.07;3.55;;;;;;;;;;5029536;28;20028;-70
2021/01/22 06:59:48;;;;;;;11.80;3.53;;;;;;;;;;5029268;28;20030;-70
2021/01/22 07:02:43;;;;;;;8.18;3.70;;;;;;;;;;5029650;28;20021;-70
2021/01/22 07:05:23;;;;;;;9.02;4.93;;;;;;;;;;5024247;28;20493;-70
2021/01/22 07:07:49;;;;;;;19.33;3.85;;;;;;;;;;5029191;28;20038;-69
2021/01/22 07:10:14;;;;;;;9.10;3.90;;;;;;;;;;5028684;28;20128;-70
2021/01/22 07:12:41;;;;;;;10.55;3.83;;;;;;;;;;5029265;28;20033;-69
2021/01/22 07:15:21;;;;;;;12.63;3.90;;;;;;;;;;5029643;28;20026;-70
2021/01/22 07:18:00;;;;;;;8.13;3.20;;;;;;;;;;5026409;28;20095;-69
2021/01/22 07:20:28;;;;;;;13.27;3.58;;;;;;;;;;5029025;28;20513;-70
2021/01/22 07:22:54;;;;;;;13.38;3.47;;;;;;;;;;5029434;28;20037;-69
2021/01/22 07:25:34;;;;;;;10.63;3.90;;;;;;;;;;5028925;28;20100;-70
2021/01/22 07:28:20;;;;;;;11.15;3.63;;;;;;;;;;5029068;28;20026;-70
2021/01/22 07:30:45;;;;;;;10.45;3.28;;;;;;;;;;5029032;28;20388;-70
2021/01/22 07:33:26;;;;;;;11.15;4.03;;;;;;;;;;5029193;28;20034;-70
2021/01/22 07:36:04;;;;;;;13.13;3.92;;;;;;;;;;5028981;28;20140;-69
2021/01/22 07:38:30;;;;;;;18.98;9.13;;;;;;;;;;5030251;28;20075;-70
2021/01/22 07:40:56;;;;;;;9.27;3.65;;;;;;;;;;5032808;28;20029;-70
2021/01/22 07:43:23;;;;;;;11.07;5.70;;;;;;;;;;5032984;28;20025;-70
2021/01/22 07:45:48;;;;;;;11.37;4.10;;;;;;;;;;5032528;28;20132;-70
2021/01/22 07:48:27;;;;;;;11.68;4.70;;;;;;;;;;5012805;28;20038;-69
2021/01/22 07:50:52;;;;;;;9.00;4.93;;;;;;;;;;5012950;28;20088;-70
2021/01/22 07:53:17;;;;;;;13.27;5.00;;;;;;;;;;5013001;28;20025;-69
2021/01/22 07:55:50;;;;;;;13.00;3.30;;;;;;;;;;5013512;28;20528;-70
2021/01/22 07:58:16;;;;;;;12.25;3.92;;;;;;;;;;5013623;28;20041;-70
2021/01/22 08:00:41;;;;;;;23.48;6.88;;;;;;;;;;5012865;28;20045;-70
2021/01/22 08:03:08;;;;;;;11.68;5.22;;;;;;;;;;5012966;28;20137;-70
2021/01/22 08:05:34;;;;;;;21.35;9.95;;;;;;;;;;5012881;28;20113;-70
2021/01/22 08:08:00;;;;;;;15.32;7.43;;;;;;;;;;5012614;28;20037;-69
2021/01/22 08:10:27;;;;;;;60.83;22.33;;;;;;;;;;5012250;28;20058;-70
2021/01/22 08:12:59;;;;;;;12.55;6.25;;;;;;;;;;5012703;28;20034;-70
2021/01/22 08:15:25;;;;;;;14.55;6.00;;;;;;;;;;5012588;28;20038;-69
2021/01/22 08:17:50;;;;;;;30.85;8.93;;;;;;;;;;5017634;28;20021;-70
2021/01/22 08:20:17;;;;;;;15.85;4.47;;;;;;;;;;5032266;28;20064;-70
2021/01/22 08:22:43;;;;;;;7.88;3.47;;;;;;;;;;5032132;28;20060;-70
2021/01/22 08:25:09;;;;;;;9.35;3.97;;;;;;;;;;5031806;28;20504;-70
2021/01/22 08:27:34;;;;;;;8.07;3.13;;;;;;;;;;5031125;28;20029;-70
2021/01/22 08:30:00;;;;;;;12.63;4.05;;;;;;;;;;5031549;28;20041;-69
2021/01/22 08:32:26;;;;;;;8.93;4.20;;;;;;;;;;5031896;28;20020;-70
2021/01/22 08:34:51;;;;;;;23.27;8.07;;;;;;;;;;5032651;28;20030;-70
2021/01/22 08:37:17;;;;;;;16.65;8.27;;;;;;;;;;5031616;28;20034;-70
2021/01/22 08:39:46;;;;;;;52.92;22.33;;;;;;;;;;5031885;28;20197;-70
2021/01/22 08:42:12;;;;;;;69.88;31.92;;;;;;;;;;5031557;28;20037;-70
2021/01/22 08:44:49;;;;;;;22.98;8.70;;;;;;;;;;5032225;28;20038;-70
2021/01/22 08:47:14;;;;;;;23.02;10.90;;;;;;;;;;5031455;28;20029;-70
2021/01/22 08:49:50;;;;;;;19.98;9.65;;;;;;;;;;5031112;28;20382;-70
2021/01/22 08:52:15;;;;;;;;;;;;;;;;;;5032336;28;20032;-70
2021/01/22 08:54:41;;;;;;;16.87;5.50;;;;;;;;;;5031793;28;19905;-70
2021/01/22 08:57:08;;;;;;;13.98;4.40;;;;;;;;;;5031683;28;20099;-70
2021/01/22 08:59:45;;;;;;;11.82;3.97;;;;;;;;;;5031552;28;20037;-69
2021/01/22 09:02:10;;;;;;;6.75;3.13;;;;;;;;;;5031395;28;20105;-70
2021/01/22 09:04:36;;;;;;;13.55;4.90;;;;;;;;;;5030891;28;20117;-70
2021/01/22 09:07:02;;;;;;;17.90;8.95;;;;;;;;;;5030619;28;20017;-70
2021/01/22 09:09:42;;;;;;;32.05;15.65;;;;;;;;;;5030083;28;20107;-70
2021/01/22 09:12:08;;;;;;;33.88;16.17;;;;;;;;;;5030949;28;20080;-70
2021/01/22 09:14:46;;;;;;;32.70;15.70;;;;;;;;;;5031794;28;20353;-70
2021/01/22 09:17:20;;;;;;;32.00;15.57;;;;;;;;;;5027434;28;20036;-70
2021/01/22 09:19:59;;;;;;;186.75;22.92;;;;;;;;;;5030077;28;20014;-70
2021/01/22 09:22:30;;;;;;;40.00;15.57;;;;;;;;;;5031652;28;20505;-70
2021/01/22 09:24:55;;;;;;;25.50;11.50;;;;;;;;;;5033076;28;20025;-70
2021/01/22 09:27:21;;;;;;;23.83;8.90;;;;;;;;;;5033901;28;20038;-70
2021/01/22 09:29:46;;;;;;;411.60;38.17;;;;;;;;;;5033565;28;20065;-70
2021/01/22 09:32:11;;;;;;;38.25;14.98;;;;;;;;;;5033022;28;20485;-70
2021/01/22 09:34:37;;;;;;;1129.68;76.97;;;;;;;;;;5033784;28;20033;-70
2021/01/22 09:37:03;;;;;;;188.07;25.50;;;;;;;;;;5033967;28;20056;-69
2021/01/22 09:39:28;;;;;;;534.78;46.88;;;;;;;;;;5033572;28;20029;-70
2021/01/22 09:41:54;;;;;;;438.35;40.92;;;;;;;;;;5032998;28;20029;-68
2021/01/22 09:44:19;;;;;;;117.20;18.65;;;;;;;;;;5033052;28;20025;-68
2021/01/22 09:46:44;;;;;;;24.50;13.23;;;;;;;;;;5033487;28;20340;-68
2021/01/22 09:49:10;;;;;;;28.10;12.15;;;;;;;;;;5033727;28;20044;-68
2021/01/22 09:51:35;;;;;;;33.35;10.73;;;;;;;;;;5033149;28;20049;-68
2021/01/22 09:54:01;;;;;;;68.55;14.77;;;;;;;;;;5033599;28;20044;-68
2021/01/22 09:56:26;;;;;;;26.13;11.25;;;;;;;;;;5033179;28;20082;-68
2021/01/22 09:58:51;;;;;;;28.15;12.38;;;;;;;;;;5033433;28;20026;-68
2021/01/22 10:01:16;;;;;;;21.40;11.25;;;;;;;;;;5032649;28;20118;-68
2021/01/22 10:03:42;;;;;;;33.10;13.18;;;;;;;;;;5032847;28;20037;-68
2021/01/22 10:06:12;;;;;;;87.53;16.70;;;;;;;;;;5033385;28;20474;-68
2021/01/22 10:08:37;;;;;;;49.58;14.07;;;;;;;;;;5033462;28;20021;-68
2021/01/22 10:11:02;;;;;;;21.92;11.57;;;;;;;;;;5033099;28;20466;-68
2021/01/22 10:13:28;;;;;;;62.25;13.07;;;;;;;;;;5033640;28;20053;-68
2021/01/22 10:15:53;;;;;;;26.20;10.00;;;;;;;;;;5033298;28;20385;-68
2021/01/22 10:18:18;;;;;;;21.20;10.80;;;;;;;;;;5033386;28;20037;-68
2021/01/22 10:20:47;;;;;;;22.45;11.07;;;;;;;;;;5033395;28;20037;-68
2021/01/22 10:23:13;;;;;;;21.45;11.05;;;;;;;;;;5033267;28;20108;-68
2021/01/22 10:25:38;;;;;;;22.63;10.73;;;;;;;;;;5033202;28;20546;-68
2021/01/22 10:28:03;;;;;;;20.70;10.18;;;;;;;;;;5033279;28;20033;-68
2021/01/22 10:30:29;;;;;;;23.58;11.20;;;;;;;;;;5033062;28;20029;-68
2021/01/22 10:32:54;;;;;;;27.08;9.88;;;;;;;;;;5033123;28;20045;-68
2021/01/22 10:35:19;;;;;;;17.77;8.32;;;;;;;;;;5032841;28;20034;-68
2021/01/22 10:37:44;;;;;;;24.40;9.07;;;;;;;;;;5032871;28;20048;-68
2021/01/22 10:40:11;;;;;;;23.73;10.98;;;;;;;;;;5032941;28;20044;-68
2021/01/22 10:42:36;;;;;;;27.23;10.68;;;;;;;;;;5032968;28;20032;-68
2021/01/22 10:45:01;;;;;;;23.08;9.82;;;;;;;;;;5032501;28;20017;-68
2021/01/22 10:47:28;;;;;;;26.35;10.20;;;;;;;;;;5032934;28;20123;-68
2021/01/22 10:49:53;;;;;;;25.98;9.60;;;;;;;;;;5032731;28;20065;-68
2021/01/22 10:52:18;;;;;;;20.83;9.13;;;;;;;;;;5032791;28;20049;-67
2021/01/22 10:54:43;;;;;;;22.27;9.32;;;;;;;;;;5032905;28;20470;-68
2021/01/22 10:57:09;;;;;;;23.73;10.00;;;;;;;;;;5032733;28;20116;-67
2021/01/22 10:59:34;;;;;;;27.27;11.00;;;;;;;;;;5032787;28;20450;-68
2021/01/22 11:01:59;;;;;;;22.45;9.55;;;;;;;;;;5032354;28;20544;-68
2021/01/22 11:04:24;;;;;;;21.27;9.98;;;;;;;;;;5032960;28;20040;-68
2021/01/22 11:06:50;;;;;;;20.23;9.60;;;;;;;;;;5032379;28;20013;-70
2021/01/22 11:09:15;;;;;;;23.05;11.20;;;;;;;;;;5032661;28;20041;-70
2021/01/22 11:11:40;;;;;;;20.50;11.05;;;;;;;;;;5032487;28;20064;-70
2021/01/22 11:14:05;;;;;;;20.90;10.82;;;;;;;;;;5036439;28;20092;-70
2021/01/22 11:16:31;;;;;;;30.10;12.02;;;;;;;;;;5036445;28;20048;-70
2021/01/22 11:18:56;;;;;;;25.27;12.15;;;;;;;;;;5036959;28;20105;-68
2021/01/22 11:21:21;;;;;;;31.00;14.35;;;;;;;;;;5036252;28;20029;-69
2021/01/22 11:23:46;;;;;;;41.70;18.05;;;;;;;;;;5036673;28;20095;-70
2021/01/22 11:26:12;;;;;;;31.88;15.88;;;;;;;;;;5036453;28;20033;-69
2021/01/22 11:28:37;;;;;;;42.30;18.52;;;;;;;;;;5036589;28;20068;-69
2021/01/22 11:31:02;;;;;;;43.28;18.25;;;;;;;;;;5036401;28;20064;-69
2021/01/22 11:33:28;;;;;;;32.15;13.80;;;;;;;;;;5036517;28;20025;-71
2021/01/22 11:35:53;;;;;;;32.20;12.02;;;;;;;;;;5036577;28;20014;-70
2021/01/22 11:38:18;;;;;;;27.45;11.45;;;;;;;;;;5036458;28;20482;-71
2021/01/22 11:40:44;;;;;;;23.98;10.38;;;;;;;;;;5036475;28;20474;-71
2021/01/22 11:43:09;;;;;;;31.08;10.73;;;;;;;;;;5036580;28;20018;-71
2021/01/22 11:45:35;;;;;;;24.92;8.98;;;;;;;;;;5036136;28;20090;-69
2021/01/22 11:48:00;;;;;;;20.80;8.40;;;;;;;;;;5036228;28;20072;-68
2021/01/22 11:50:25;;;;;;;26.77;12.35;;;;;;;;;;5035999;28;20457;-68
2021/01/22 11:52:51;;;;;;;20.85;7.43;;;;;;;;;;5036236;28;20676;-68
2021/01/22 11:55:16;;;;;;;14.45;7.00;;;;;;;;;;5035666;28;20033;-68
2021/01/22 11:57:41;;;;;;;24.92;9.98;;;;;;;;;;5036038;28;20026;-68
2021/01/22 12:00:07;;;;;;;15.70;3.88;;;;;;;;;;5036004;28;20116;-69
2021/01/22 12:02:32;;;;;;;16.60;4.22;;;;;;;;;;5035594;28;20041;-69
2021/01/22 12:04:57;;;;;;;15.98;3.92;;;;;;;;;;5035856;28;20056;-68
2021/01/22 12:07:23;;;;;;;11.00;3.60;;;;;;;;;;5035740;28;20041;-68
2021/01/22 12:09:48;;;;;;;14.27;5.72;;;;;;;;;;5035341;28;20167;-69
2021/01/22 12:12:13;;;;;;;27.30;6.45;;;;;;;;;;5035591;28;20016;-68
2021/01/22 12:14:38;;;;;;;23.08;4.80;;;;;;;;;;5035794;28;20040;-69
2021/01/22 12:17:04;;;;;;;16.05;4.78;;;;;;;;;;5035435;28;20045;-68
2021/01/22 12:19:29;;;;;;;19.05;5.10;;;;;;;;;;5036000;28;20009;-68
2021/01/22 12:21:55;;;;;;;17.35;4.13;;;;;;;;;;5035531;28;20494;-68
2021/01/22 12:24:20;;;;;;;14.20;3.67;;;;;;;;;;5034912;28;20033;-69
2021/01/22 12:26:46;;;;;;;16.05;4.30;;;;;;;;;;5035441;28;20018;-68
2021/01/22 12:29:11;;;;;;;14.82;4.13;;;;;;;;;;5035591;28;20425;-69
2021/01/22 12:31:37;;;;;;;15.00;4.43;;;;;;;;;;5035046;28;20037;-69
2021/01/22 12:34:02;;;;;;;18.00;3.70;;;;;;;;;;5035370;28;20397;-69
2021/01/22 12:36:27;;;;;;;12.90;4.32;;;;;;;;;;5035414;28;20037;-69
2021/01/22 12:38:53;;;;;;;12.07;4.45;;;;;;;;;;5031830;28;20080;-71
2021/01/22 12:41:18;;;;;;;13.93;3.33;;;;;;;;;;5034530;28;20062;-71
2021/01/22 12:43:43;;;;;;;11.95;3.58;;;;;;;;;;5035176;28;20103;-71
2021/01/22 12:46:08;;;;;;;16.02;3.50;;;;;;;;;;5034978;28;20034;-71
2021/01/22 12:48:34;;;;;;;18.13;3.70;;;;;;;;;;5035047;28;20343;-71
2021/01/22 12:50:59;;;;;;;16.85;3.13;;;;;;;;;;5034594;28;20536;-71
2021/01/22 12:53:25;;;;;;;18.92;3.85;;;;;;;;;;5034963;28;20113;-69
2021/01/22 12:55:50;;;;;;;14.38;3.47;;;;;;;;;;5034985;28;20385;-69
2021/01/22 12:58:15;;;;;;;12.52;3.33;;;;;;;;;;5034893;28;20030;-68
2021/01/22 13:00:41;;;;;;;14.00;3.58;;;;;;;;;;5034504;28;20393;-69
2021/01/22 13:03:06;;;;;;;8.43;2.45;;;;;;;;;;5034861;28;20068;-69
2021/01/22 13:05:32;;;;;;;15.75;2.92;;;;;;;;;;5034755;28;20504;-68
2021/01/22 13:07:57;;;;;;;10.65;2.60;;;;;;;;;;5034981;28;20030;-69
2021/01/22 13:10:22;;;;;;;11.50;4.30;;;;;;;;;;5034245;28;20118;-68
2021/01/22 13:12:49;;;;;;;8.27;2.88;;;;;;;;;;5034451;28;20425;-69
2021/01/22 13:15:14;;;;;;;16.85;3.55;;;;;;;;;;5034661;28;20164;-69
2021/01/22 13:17:40;;;;;;;12.23;3.55;;;;;;;;;;5034322;28;20518;-69
2021/01/22 13:20:06;;;;;;;15.02;3.80;;;;;;;;;;5034448;28;20576;-69
2021/01/22 13:22:31;;;;;;;15.23;4.18;;;;;;;;;;5034467;28;20083;-68
2021/01/22 13:24:57;;;;;;;25.02;7.20;;;;;;;;;;5034384;28;20366;-69
2021/01/22 13:27:22;;;;;;;17.58;5.97;;;;;;;;;;5033841;28;20034;-68
2021/01/22 13:29:47;;;;;;;17.27;4.85;;;;;;;;;;5033945;28;20056;-69
2021/01/22 13:32:13;;;;;;;18.50;7.32;;;;;;;;;;5034002;28;20025;-69
2021/01/22 13:34:38;;;;;;;25.10;7.53;;;;;;;;;;5033905;28;20475;-69
2021/01/22 13:37:03;;;;;;;14.63;6.93;;;;;;;;;;5033055;28;20025;-69
2021/01/22 13:39:29;;;;;;;12.23;2.97;;;;;;;;;;5033813;28;20377;-69
2021/01/22 13:41:54;;;;;;;16.98;2.80;;;;;;;;;;5033561;28;20060;-69
2021/01/22 13:44:19;;;;;;;18.27;4.03;;;;;;;;;;5033886;28;20107;-69
2021/01/22 13:46:45;;;;;;;11.25;3.10;;;;;;;;;;5033757;28;20021;-69
2021/01/22 13:49:10;;;;;;;10.52;2.67;;;;;;;;;;5033629;28;20104;-69
2021/01/22 13:51:36;;;;;;;12.02;2.90;;;;;;;;;;5033320;28;20147;-69
2021/01/22 13:54:02;;;;;;;15.75;5.30;;;;;;;;;;5027289;28;20113;-71
2021/01/22 13:56:27;;;;;;;13.13;3.83;;;;;;;;;;5029953;28;20029;-71
2021/01/22 13:58:53;;;;;;;8.77;2.80;;;;;;;;;;5030430;28;20033;-71
2021/01/22 14:01:18;;;;;;;12.10;3.92;;;;;;;;;;5030831;28;20473;-71
2021/01/22 14:03:43;;;;;;;19.08;6.82;;;;;;;;;;5031018;28;20123;-71
2021/01/22 14:06:09;;;;;;;20.77;6.07;;;;;;;;;;5031553;28;20049;-71
2021/01/22 14:08:34;;;;;;;18.73;5.75;;;;;;;;;;5032329;28;20026;-71
2021/01/22 14:11:00;;;;;;;15.00;6.72;;;;;;;;;;5035926;28;20168;-71
2021/01/22 14:13:25;;;;;;;17.00;5.25;;;;;;;;;;5039011;28;20487;-70
2021/01/22 14:15:50;;;;;;;13.30;5.10;;;;;;;;;;5039481;28;20055;-71
2021/01/22 14:18:16;;;;;;;10.77;4.00;;;;;;;;;;5034682;28;20036;-71
2021/01/22 14:20:41;;;;;;;16.38;4.88;;;;;;;;;;5042715;28;20044;-70
2021/01/22 14:23:06;;;;;;;19.00;6.55;;;;;;;;;;5040829;28;20100;-71